createdAt,value
2023-04-18T00:01:06.091Z,17.2
2023-04-18T00:16:40.178Z,16.9
2023-04-18T00:32:14.422Z,15.9
2023-04-18T00:47:48.674Z,12.8
2023-04-18T01:03:23.568Z,16.1
2023-04-18T01:18:57.956Z,19.9
2023-04-18T01:34:31.882Z,14.1
2023-04-18T01:50:05.869Z,18.3
2023-04-18T02:05:39.788Z,21.7
2023-04-18T02:21:13.740Z,26.5
2023-04-18T02:36:47.720Z,25.9
2023-04-18T02:52:21.663Z,19.9
2023-04-18T03:07:55.835Z,25.6
2023-04-18T03:23:29.954Z,27.3
2023-04-18T03:39:03.914Z,15.7
2023-04-18T03:54:38.168Z,18.4
2023-04-18T04:10:12.297Z,13.5
2023-04-18T04:25:46.297Z,11
2023-04-18T04:41:20.249Z,11.9
2023-04-18T04:56:54.226Z,10.3
2023-04-18T05:12:28.194Z,14.2
2023-04-18T05:28:02.219Z,12.9
2023-04-18T05:43:36.244Z,17.8
2023-04-18T05:59:10.513Z,23.2
2023-04-18T06:14:44.526Z,31.7
2023-04-18T06:30:18.662Z,29.6
2023-04-18T06:45:52.853Z,31
2023-04-18T07:01:27.409Z,23.1
2023-04-18T07:17:02.543Z,20.9
2023-04-18T07:32:37.191Z,26.4
2023-04-18T07:48:11.542Z,20
2023-04-18T08:03:46.796Z,17.6
2023-04-18T08:19:21.403Z,12.6
2023-04-18T08:34:55.645Z,17.2
2023-04-18T08:50:29.822Z,19.8
2023-04-18T09:06:04.275Z,51
2023-04-18T09:21:38.381Z,17.2
2023-04-18T09:37:12.838Z,11.6
2023-04-18T09:52:47.714Z,11.4
2023-04-18T10:08:21.922Z,15.2
2023-04-18T10:23:55.993Z,11.2
2023-04-18T10:39:30.546Z,13.2
2023-04-18T10:55:04.893Z,11.2
2023-04-18T11:10:39.162Z,14.1
2023-04-18T11:26:13.269Z,13.8
2023-04-18T11:41:47.388Z,14.1
2023-04-18T11:57:21.432Z,16.8
2023-04-18T12:12:55.475Z,24.5
2023-04-18T12:28:29.662Z,22.8
2023-04-18T12:44:03.845Z,18.2
2023-04-18T12:59:38.110Z,13.2
2023-04-18T13:15:12.263Z,18.5
2023-04-18T13:30:46.528Z,18.7
2023-04-18T13:46:20.845Z,18.5
2023-04-18T14:01:55.365Z,16.5
2023-04-18T14:17:29.957Z,15.4
2023-04-18T14:33:04.097Z,18.4
2023-04-18T14:48:38.348Z,18.3
2023-04-18T15:04:13.246Z,19.9
2023-04-18T15:19:49.317Z,15.2
2023-04-18T15:35:23.667Z,16
2023-04-18T15:50:59.731Z,15.1
2023-04-18T16:06:33.786Z,15
2023-04-18T16:22:07.859Z,16.4
2023-04-18T16:37:41.910Z,17.1
2023-04-18T16:53:15.916Z,13.8
2023-04-18T17:08:50.059Z,13.9
2023-04-18T17:24:24.140Z,13.4
2023-04-18T17:39:58.179Z,16.7
2023-04-18T17:55:32.156Z,15.2
2023-04-18T18:11:06.266Z,15.1
2023-04-18T18:26:40.659Z,14.5
2023-04-18T18:42:14.669Z,20.9
2023-04-18T18:57:48.703Z,19.5
2023-04-18T19:13:22.740Z,21.7
2023-04-18T19:28:56.784Z,24
2023-04-18T19:44:30.807Z,23.6
2023-04-18T20:00:04.939Z,27.3
2023-04-18T20:15:38.984Z,27.1
2023-04-18T20:31:13.597Z,26.3
2023-04-18T20:46:47.938Z,32.8
2023-04-18T21:02:22.354Z,23.4
2023-04-18T21:17:56.900Z,26.8
2023-04-18T21:33:31.156Z,29.9
2023-04-18T21:49:05.219Z,33.2
2023-04-18T22:04:39.730Z,32.7
2023-04-18T22:20:13.718Z,32.2
2023-04-18T22:35:48.081Z,33.7
2023-04-18T22:51:22.049Z,31
2023-04-18T23:06:56.039Z,32.7
2023-04-18T23:22:30.225Z,31.5
2023-04-18T23:38:04.353Z,25.5
2023-04-18T23:53:38.325Z,19.4
